sensor_id;sensor_type;location;lat;lon;timestamp;P1;durP1;ratioP1;P2;durP2;ratioP2
54191;SDS011;40101;53.002;6.488;2023-09-12T00:02:05;28.80;;;22.77;;
54191;SDS011;40101;53.002;6.488;2023-09-12T00:04:31;26.25;;;21.42;;
54191;SDS011;40101;53.002;6.488;2023-09-12T00:06:56;35.05;;;23.95;;
54191;SDS011;40101;53.002;6.488;2023-09-12T00:09:22;26.92;;;22.13;;
54191;SDS011;40101;53.002;6.488;2023-09-12T00:11:48;34.75;;;24.85;;
54191;SDS011;40101;53.002;6.488;2023-09-12T00:14:17;31.92;;;24.98;;
54191;SDS011;40101;53.002;6.488;2023-09-12T00:16:43;30.65;;;24.75;;
54191;SDS011;40101;53.002;6.488;2023-09-12T00:19:08;28.45;;;23.30;;
54191;SDS011;40101;53.002;6.488;2023-09-12T00:21:34;36.67;;;25.05;;
54191;SDS011;40101;53.002;6.488;2023-09-12T00:24:00;30.50;;;24.08;;
54191;SDS011;40101;53.002;6.488;2023-09-12T00:26:26;40.38;;;27.75;;
54191;SDS011;40101;53.002;6.488;2023-09-12T00:28:52;31.17;;;24.40;;
54191;SDS011;40101;53.002;6.488;2023-09-12T00:31:17;30.65;;;24.88;;
54191;SDS011;40101;53.002;6.488;2023-09-12T00:33:43;37.55;;;27.70;;
54191;SDS011;40101;53.002;6.488;2023-09-12T00:36:09;34.47;;;24.98;;
54191;SDS011;40101;53.002;6.488;2023-09-12T00:38:34;28.45;;;23.88;;
54191;SDS011;40101;53.002;6.488;2023-09-12T00:41:00;31.42;;;25.65;;
54191;SDS011;40101;53.002;6.488;2023-09-12T00:43:26;35.22;;;26.95;;
54191;SDS011;40101;53.002;6.488;2023-09-12T00:45:51;28.65;;;21.88;;
54191;SDS011;40101;53.002;6.488;2023-09-12T00:48:18;31.88;;;25.23;;
54191;SDS011;40101;53.002;6.488;2023-09-12T00:50:44;35.17;;;24.45;;
54191;SDS011;40101;53.002;6.488;2023-09-12T00:53:12;33.72;;;23.85;;
54191;SDS011;40101;53.002;6.488;2023-09-12T00:55:39;28.33;;;22.25;;
54191;SDS011;40101;53.002;6.488;2023-09-12T00:58:10;32.42;;;23.38;;
54191;SDS011;40101;53.002;6.488;2023-09-12T01:00:36;32.33;;;23.98;;
54191;SDS011;40101;53.002;6.488;2023-09-12T01:03:01;29.10;;;22.60;;
54191;SDS011;40101;53.002;6.488;2023-09-12T01:05:28;33.47;;;26.27;;
54191;SDS011;40101;53.002;6.488;2023-09-12T01:07:54;30.92;;;24.30;;
54191;SDS011;40101;53.002;6.488;2023-09-12T01:10:20;32.33;;;26.40;;
54191;SDS011;40101;53.002;6.488;2023-09-12T01:12:46;42.33;;;28.05;;
54191;SDS011;40101;53.002;6.488;2023-09-12T01:15:11;34.95;;;27.73;;
54191;SDS011;40101;53.002;6.488;2023-09-12T01:17:42;35.45;;;27.13;;
54191;SDS011;40101;53.002;6.488;2023-09-12T01:20:11;33.22;;;25.80;;
54191;SDS011;40101;53.002;6.488;2023-09-12T01:25:34;40.67;;;29.80;;
54191;SDS011;40101;53.002;6.488;2023-09-12T01:28:10;42.40;;;30.27;;
54191;SDS011;40101;53.002;6.488;2023-09-12T01:30:39;38.15;;;28.60;;
54191;SDS011;40101;53.002;6.488;2023-09-12T01:33:07;35.00;;;27.02;;
54191;SDS011;40101;53.002;6.488;2023-09-12T01:35:33;41.33;;;27.67;;
54191;SDS011;40101;53.002;6.488;2023-09-12T01:37:59;35.47;;;26.70;;
54191;SDS011;40101;53.002;6.488;2023-09-12T01:40:27;33.38;;;26.95;;
54191;SDS011;40101;53.002;6.488;2023-09-12T01:43:08;36.80;;;27.90;;
54191;SDS011;40101;53.002;6.488;2023-09-12T01:45:34;37.25;;;27.58;;
54191;SDS011;40101;53.002;6.488;2023-09-12T01:48:02;35.90;;;26.10;;
54191;SDS011;40101;53.002;6.488;2023-09-12T01:50:30;37.63;;;25.02;;
54191;SDS011;40101;53.002;6.488;2023-09-12T01:52:57;33.20;;;26.52;;
54191;SDS011;40101;53.002;6.488;2023-09-12T01:55:23;34.15;;;26.52;;
54191;SDS011;40101;53.002;6.488;2023-09-12T01:57:50;38.92;;;28.42;;
54191;SDS011;40101;53.002;6.488;2023-09-12T02:00:17;39.70;;;29.83;;
54191;SDS011;40101;53.002;6.488;2023-09-12T02:02:44;35.97;;;27.77;;
54191;SDS011;40101;53.002;6.488;2023-09-12T02:05:19;38.95;;;29.65;;
54191;SDS011;40101;53.002;6.488;2023-09-12T02:07:46;39.03;;;27.45;;
54191;SDS011;40101;53.002;6.488;2023-09-12T02:10:12;42.03;;;30.80;;
54191;SDS011;40101;53.002;6.488;2023-09-12T02:12:39;39.00;;;29.75;;
54191;SDS011;40101;53.002;6.488;2023-09-12T02:15:05;41.40;;;31.30;;
54191;SDS011;40101;53.002;6.488;2023-09-12T02:17:31;40.85;;;29.02;;
54191;SDS011;40101;53.002;6.488;2023-09-12T02:19:57;42.17;;;30.73;;
54191;SDS011;40101;53.002;6.488;2023-09-12T02:22:22;38.35;;;27.10;;
54191;SDS011;40101;53.002;6.488;2023-09-12T02:24:48;34.92;;;26.42;;
54191;SDS011;40101;53.002;6.488;2023-09-12T02:27:15;36.35;;;24.77;;
54191;SDS011;40101;53.002;6.488;2023-09-12T02:29:41;43.63;;;29.17;;
54191;SDS011;40101;53.002;6.488;2023-09-12T02:32:07;42.47;;;30.15;;
54191;SDS011;40101;53.002;6.488;2023-09-12T02:34:33;39.22;;;31.77;;
54191;SDS011;40101;53.002;6.488;2023-09-12T02:36:59;40.88;;;28.40;;
54191;SDS011;40101;53.002;6.488;2023-09-12T02:39:25;37.45;;;29.70;;
54191;SDS011;40101;53.002;6.488;2023-09-12T02:41:51;41.60;;;29.42;;
54191;SDS011;40101;53.002;6.488;2023-09-12T02:44:16;44.55;;;31.17;;
54191;SDS011;40101;53.002;6.488;2023-09-12T02:46:42;41.90;;;32.38;;
54191;SDS011;40101;53.002;6.488;2023-09-12T02:49:07;38.58;;;29.05;;
54191;SDS011;40101;53.002;6.488;2023-09-12T02:51:33;38.17;;;29.02;;
54191;SDS011;40101;53.002;6.488;2023-09-12T02:53:59;38.15;;;29.55;;
54191;SDS011;40101;53.002;6.488;2023-09-12T02:56:24;41.85;;;29.40;;
54191;SDS011;40101;53.002;6.488;2023-09-12T02:58:50;40.42;;;29.85;;
54191;SDS011;40101;53.002;6.488;2023-09-12T03:01:16;43.58;;;29.02;;
54191;SDS011;40101;53.002;6.488;2023-09-12T03:03:43;39.90;;;28.13;;
54191;SDS011;40101;53.002;6.488;2023-09-12T03:06:11;41.92;;;29.95;;
54191;SDS011;40101;53.002;6.488;2023-09-12T03:08:37;33.40;;;27.60;;
54191;SDS011;40101;53.002;6.488;2023-09-12T03:11:04;32.90;;;25.67;;
54191;SDS011;40101;53.002;6.488;2023-09-12T03:13:29;46.33;;;30.50;;
54191;SDS011;40101;53.002;6.488;2023-09-12T03:15:55;35.70;;;26.65;;
54191;SDS011;40101;53.002;6.488;2023-09-12T03:18:21;34.65;;;26.00;;
54191;SDS011;40101;53.002;6.488;2023-09-12T03:20:46;33.70;;;26.45;;
54191;SDS011;40101;53.002;6.488;2023-09-12T03:23:12;30.23;;;24.20;;
54191;SDS011;40101;53.002;6.488;2023-09-12T03:25:38;26.90;;;24.00;;
54191;SDS011;40101;53.002;6.488;2023-09-12T03:28:04;29.05;;;23.45;;
54191;SDS011;40101;53.002;6.488;2023-09-12T03:30:34;26.42;;;22.42;;
54191;SDS011;40101;53.002;6.488;2023-09-12T03:33:01;29.83;;;23.30;;
54191;SDS011;40101;53.002;6.488;2023-09-12T03:35:28;30.42;;;24.00;;
54191;SDS011;40101;53.002;6.488;2023-09-12T03:37:54;32.95;;;26.88;;
54191;SDS011;40101;53.002;6.488;2023-09-12T03:40:20;32.83;;;26.92;;
54191;SDS011;40101;53.002;6.488;2023-09-12T03:42:46;35.70;;;26.15;;
54191;SDS011;40101;53.002;6.488;2023-09-12T03:45:11;35.80;;;26.90;;
54191;SDS011;40101;53.002;6.488;2023-09-12T03:47:37;32.40;;;24.73;;
54191;SDS011;40101;53.002;6.488;2023-09-12T03:50:03;36.28;;;26.65;;
54191;SDS011;40101;53.002;6.488;2023-09-12T03:52:29;38.28;;;25.63;;
54191;SDS011;40101;53.002;6.488;2023-09-12T03:54:54;32.72;;;23.10;;
54191;SDS011;40101;53.002;6.488;2023-09-12T03:57:20;30.05;;;23.15;;
54191;SDS011;40101;53.002;6.488;2023-09-12T03:59:46;49.83;;;30.98;;
54191;SDS011;40101;53.002;6.488;2023-09-12T04:02:12;69.00;;;33.67;;
54191;SDS011;40101;53.002;6.488;2023-09-12T04:04:37;95.60;;;35.60;;
54191;SDS011;40101;53.002;6.488;2023-09-12T04:07:03;135.85;;;39.13;;
54191;SDS011;40101;53.002;6.488;2023-09-12T04:09:29;124.00;;;33.63;;
54191;SDS011;40101;53.002;6.488;2023-09-12T04:11:55;111.22;;;30.40;;
54191;SDS011;40101;53.002;6.488;2023-09-12T04:14:21;136.13;;;34.95;;
54191;SDS011;40101;53.002;6.488;2023-09-12T04:16:47;65.90;;;31.77;;
54191;SDS011;40101;53.002;6.488;2023-09-12T04:19:13;90.10;;;35.35;;
54191;SDS011;40101;53.002;6.488;2023-09-12T04:21:39;89.85;;;31.15;;
54191;SDS011;40101;53.002;6.488;2023-09-12T04:24:05;99.15;;;29.45;;
54191;SDS011;40101;53.002;6.488;2023-09-12T04:26:31;103.10;;;30.35;;
54191;SDS011;40101;53.002;6.488;2023-09-12T04:28:57;78.20;;;25.85;;
54191;SDS011;40101;53.002;6.488;2023-09-12T04:31:23;61.70;;;28.05;;
54191;SDS011;40101;53.002;6.488;2023-09-12T04:33:52;99.93;;;31.02;;
54191;SDS011;40101;53.002;6.488;2023-09-12T04:36:18;58.25;;;26.63;;
54191;SDS011;40101;53.002;6.488;2023-09-12T04:38:44;118.70;;;31.77;;
54191;SDS011;40101;53.002;6.488;2023-09-12T04:41:11;123.25;;;35.35;;
54191;SDS011;40101;53.002;6.488;2023-09-12T04:43:40;95.32;;;32.28;;
54191;SDS011;40101;53.002;6.488;2023-09-12T04:46:06;82.72;;;28.90;;
54191;SDS011;40101;53.002;6.488;2023-09-12T04:48:32;58.25;;;27.13;;
54191;SDS011;40101;53.002;6.488;2023-09-12T04:50:58;145.88;;;35.88;;
54191;SDS011;40101;53.002;6.488;2023-09-12T04:53:23;91.60;;;32.42;;
54191;SDS011;40101;53.002;6.488;2023-09-12T04:55:51;198.85;;;37.78;;
54191;SDS011;40101;53.002;6.488;2023-09-12T04:58:18;84.95;;;30.63;;
54191;SDS011;40101;53.002;6.488;2023-09-12T05:00:44;87.72;;;33.53;;
54191;SDS011;40101;53.002;6.488;2023-09-12T05:03:10;87.00;;;32.78;;
54191;SDS011;40101;53.002;6.488;2023-09-12T05:05:36;126.60;;;36.92;;
54191;SDS011;40101;53.002;6.488;2023-09-12T05:08:01;101.68;;;36.22;;
54191;SDS011;40101;53.002;6.488;2023-09-12T05:10:28;56.03;;;28.75;;
54191;SDS011;40101;53.002;6.488;2023-09-12T05:12:54;68.53;;;32.22;;
54191;SDS011;40101;53.002;6.488;2023-09-12T05:15:20;68.43;;;31.60;;
54191;SDS011;40101;53.002;6.488;2023-09-12T05:17:46;90.45;;;36.92;;
54191;SDS011;40101;53.002;6.488;2023-09-12T05:20:11;60.97;;;32.85;;
54191;SDS011;40101;53.002;6.488;2023-09-12T05:22:37;96.15;;;35.85;;
54191;SDS011;40101;53.002;6.488;2023-09-12T05:25:03;71.80;;;33.33;;
54191;SDS011;40101;53.002;6.488;2023-09-12T05:27:28;100.45;;;37.75;;
54191;SDS011;40101;53.002;6.488;2023-09-12T05:29:54;85.28;;;34.25;;
54191;SDS011;40101;53.002;6.488;2023-09-12T05:32:20;101.93;;;39.25;;
54191;SDS011;40101;53.002;6.488;2023-09-12T05:34:45;105.45;;;39.38;;
54191;SDS011;40101;53.002;6.488;2023-09-12T05:37:14;86.15;;;35.75;;
54191;SDS011;40101;53.002;6.488;2023-09-12T05:39:40;74.75;;;36.00;;
54191;SDS011;40101;53.002;6.488;2023-09-12T05:42:05;101.80;;;37.20;;
54191;SDS011;40101;53.002;6.488;2023-09-12T05:44:31;100.80;;;39.50;;
54191;SDS011;40101;53.002;6.488;2023-09-12T05:46:57;149.18;;;41.45;;
54191;SDS011;40101;53.002;6.488;2023-09-12T05:49:23;155.18;;;42.15;;
54191;SDS011;40101;53.002;6.488;2023-09-12T05:51:48;99.57;;;37.55;;
54191;SDS011;40101;53.002;6.488;2023-09-12T05:54:14;97.07;;;36.03;;
54191;SDS011;40101;53.002;6.488;2023-09-12T05:56:40;70.60;;;36.33;;
54191;SDS011;40101;53.002;6.488;2023-09-12T05:59:06;92.95;;;37.40;;
54191;SDS011;40101;53.002;6.488;2023-09-12T06:01:32;122.20;;;42.10;;
54191;SDS011;40101;53.002;6.488;2023-09-12T06:03:57;83.03;;;39.05;;
54191;SDS011;40101;53.002;6.488;2023-09-12T06:06:23;160.43;;;43.92;;
54191;SDS011;40101;53.002;6.488;2023-09-12T06:08:48;131.75;;;41.95;;
54191;SDS011;40101;53.002;6.488;2023-09-12T06:11:14;130.25;;;42.00;;
54191;SDS011;40101;53.002;6.488;2023-09-12T06:13:40;72.43;;;36.95;;
54191;SDS011;40101;53.002;6.488;2023-09-12T06:16:05;97.65;;;35.42;;
54191;SDS011;40101;53.002;6.488;2023-09-12T06:18:31;105.65;;;42.45;;
54191;SDS011;40101;53.002;6.488;2023-09-12T06:21:01;69.90;;;35.22;;
54191;SDS011;40101;53.002;6.488;2023-09-12T06:23:33;80.22;;;39.22;;
54191;SDS011;40101;53.002;6.488;2023-09-12T06:25:59;102.88;;;44.45;;
54191;SDS011;40101;53.002;6.488;2023-09-12T06:28:25;81.00;;;40.78;;
54191;SDS011;40101;53.002;6.488;2023-09-12T06:30:51;67.75;;;36.95;;
54191;SDS011;40101;53.002;6.488;2023-09-12T06:33:17;89.22;;;41.28;;
54191;SDS011;40101;53.002;6.488;2023-09-12T06:35:43;95.38;;;43.47;;
54191;SDS011;40101;53.002;6.488;2023-09-12T06:38:08;85.25;;;40.33;;
54191;SDS011;40101;53.002;6.488;2023-09-12T06:40:34;74.30;;;37.67;;
54191;SDS011;40101;53.002;6.488;2023-09-12T06:43:00;102.55;;;41.20;;
54191;SDS011;40101;53.002;6.488;2023-09-12T06:45:25;93.15;;;40.30;;
54191;SDS011;40101;53.002;6.488;2023-09-12T06:47:51;79.57;;;38.28;;
54191;SDS011;40101;53.002;6.488;2023-09-12T06:50:16;111.40;;;41.40;;
54191;SDS011;40101;53.002;6.488;2023-09-12T06:52:42;82.68;;;41.13;;
54191;SDS011;40101;53.002;6.488;2023-09-12T06:55:08;90.50;;;40.08;;
54191;SDS011;40101;53.002;6.488;2023-09-12T06:57:34;66.85;;;34.05;;
54191;SDS011;40101;53.002;6.488;2023-09-12T06:59:59;67.32;;;37.00;;
54191;SDS011;40101;53.002;6.488;2023-09-12T07:02:26;75.13;;;38.42;;
54191;SDS011;40101;53.002;6.488;2023-09-12T07:04:52;87.07;;;37.40;;
54191;SDS011;40101;53.002;6.488;2023-09-12T07:07:17;77.40;;;37.13;;
54191;SDS011;40101;53.002;6.488;2023-09-12T07:09:44;73.30;;;37.13;;
54191;SDS011;40101;53.002;6.488;2023-09-12T07:12:10;70.05;;;35.67;;
54191;SDS011;40101;53.002;6.488;2023-09-12T07:14:35;80.78;;;35.33;;
54191;SDS011;40101;53.002;6.488;2023-09-12T07:17:02;81.60;;;35.40;;
54191;SDS011;40101;53.002;6.488;2023-09-12T07:19:31;51.13;;;32.40;;
54191;SDS011;40101;53.002;6.488;2023-09-12T07:21:56;68.95;;;34.85;;
54191;SDS011;40101;53.002;6.488;2023-09-12T07:24:25;66.13;;;35.92;;
54191;SDS011;40101;53.002;6.488;2023-09-12T07:26:51;61.75;;;35.58;;
54191;SDS011;40101;53.002;6.488;2023-09-12T07:29:17;54.97;;;33.90;;
54191;SDS011;40101;53.002;6.488;2023-09-12T07:31:43;62.67;;;34.05;;
54191;SDS011;40101;53.002;6.488;2023-09-12T07:34:09;63.42;;;35.30;;
54191;SDS011;40101;53.002;6.488;2023-09-12T07:36:35;60.17;;;36.17;;
54191;SDS011;40101;53.002;6.488;2023-09-12T07:39:01;63.65;;;33.80;;
54191;SDS011;40101;53.002;6.488;2023-09-12T07:41:28;59.38;;;34.92;;
54191;SDS011;40101;53.002;6.488;2023-09-12T07:43:54;58.17;;;34.60;;
54191;SDS011;40101;53.002;6.488;2023-09-12T07:46:20;62.83;;;36.45;;
54191;SDS011;40101;53.002;6.488;2023-09-12T07:48:46;54.53;;;33.03;;
54191;SDS011;40101;53.002;6.488;2023-09-12T07:51:12;57.88;;;31.92;;
54191;SDS011;40101;53.002;6.488;2023-09-12T07:53:39;55.72;;;34.08;;
54191;SDS011;40101;53.002;6.488;2023-09-12T07:56:05;50.20;;;32.20;;
54191;SDS011;40101;53.002;6.488;2023-09-12T07:58:31;56.65;;;33.83;;
54191;SDS011;40101;53.002;6.488;2023-09-12T08:00:57;57.85;;;34.88;;
54191;SDS011;40101;53.002;6.488;2023-09-12T08:03:22;54.65;;;35.05;;
54191;SDS011;40101;53.002;6.488;2023-09-12T08:05:55;55.78;;;33.58;;
54191;SDS011;40101;53.002;6.488;2023-09-12T08:08:21;51.72;;;33.20;;
54191;SDS011;40101;53.002;6.488;2023-09-12T08:10:48;49.38;;;32.95;;
54191;SDS011;40101;53.002;6.488;2023-09-12T08:13:14;57.25;;;35.17;;
54191;SDS011;40101;53.002;6.488;2023-09-12T08:15:39;55.75;;;35.10;;
54191;SDS011;40101;53.002;6.488;2023-09-12T08:18:05;46.95;;;31.67;;
54191;SDS011;40101;53.002;6.488;2023-09-12T08:20:31;49.70;;;32.65;;
54191;SDS011;40101;53.002;6.488;2023-09-12T08:22:56;45.90;;;29.65;;
54191;SDS011;40101;53.002;6.488;2023-09-12T08:25:22;49.53;;;34.00;;
54191;SDS011;40101;53.002;6.488;2023-09-12T08:27:49;47.05;;;31.58;;
54191;SDS011;40101;53.002;6.488;2023-09-12T08:30:15;41.90;;;27.80;;
54191;SDS011;40101;53.002;6.488;2023-09-12T08:32:41;47.25;;;31.45;;
54191;SDS011;40101;53.002;6.488;2023-09-12T08:35:11;52.45;;;33.10;;
54191;SDS011;40101;53.002;6.488;2023-09-12T08:37:40;57.00;;;35.45;;
54191;SDS011;40101;53.002;6.488;2023-09-12T08:40:07;48.80;;;31.48;;
54191;SDS011;40101;53.002;6.488;2023-09-12T08:42:43;53.22;;;34.35;;
54191;SDS011;40101;53.002;6.488;2023-09-12T08:45:13;53.63;;;32.80;;
54191;SDS011;40101;53.002;6.488;2023-09-12T08:47:40;52.50;;;35.05;;
54191;SDS011;40101;53.002;6.488;2023-09-12T08:50:10;59.53;;;36.00;;
54191;SDS011;40101;53.002;6.488;2023-09-12T08:52:37;59.40;;;35.42;;
54191;SDS011;40101;53.002;6.488;2023-09-12T08:55:03;58.25;;;35.35;;
54191;SDS011;40101;53.002;6.488;2023-09-12T08:57:30;59.08;;;35.38;;
54191;SDS011;40101;53.002;6.488;2023-09-12T09:00:00;57.70;;;35.80;;
54191;SDS011;40101;53.002;6.488;2023-09-12T09:02:31;60.05;;;34.63;;
54191;SDS011;40101;53.002;6.488;2023-09-12T09:04:58;61.53;;;38.08;;
54191;SDS011;40101;53.002;6.488;2023-09-12T09:07:25;57.90;;;35.40;;
54191;SDS011;40101;53.002;6.488;2023-09-12T09:09:52;66.90;;;38.03;;
54191;SDS011;40101;53.002;6.488;2023-09-12T09:12:18;59.50;;;36.30;;
54191;SDS011;40101;53.002;6.488;2023-09-12T09:14:44;54.17;;;37.38;;
54191;SDS011;40101;53.002;6.488;2023-09-12T09:17:10;50.33;;;34.00;;
54191;SDS011;40101;53.002;6.488;2023-09-12T09:19:41;45.95;;;31.15;;
54191;SDS011;40101;53.002;6.488;2023-09-12T09:22:08;48.60;;;32.10;;
54191;SDS011;40101;53.002;6.488;2023-09-12T09:24:33;48.38;;;30.27;;
54191;SDS011;40101;53.002;6.488;2023-09-12T09:26:59;46.90;;;32.63;;
54191;SDS011;40101;53.002;6.488;2023-09-12T09:29:26;50.22;;;32.10;;
54191;SDS011;40101;53.002;6.488;2023-09-12T09:31:57;48.50;;;32.30;;
54191;SDS011;40101;53.002;6.488;2023-09-12T09:34:25;40.78;;;29.50;;
54191;SDS011;40101;53.002;6.488;2023-09-12T09:36:55;47.40;;;31.83;;
54191;SDS011;40101;53.002;6.488;2023-09-12T09:39:25;45.20;;;30.13;;
54191;SDS011;40101;53.002;6.488;2023-09-12T09:41:52;46.13;;;31.85;;
54191;SDS011;40101;53.002;6.488;2023-09-12T09:44:23;39.67;;;27.65;;
54191;SDS011;40101;53.002;6.488;2023-09-12T09:46:55;46.92;;;29.77;;
54191;SDS011;40101;53.002;6.488;2023-09-12T09:49:28;42.28;;;29.25;;
54191;SDS011;40101;53.002;6.488;2023-09-12T09:51:56;46.17;;;30.20;;
54191;SDS011;40101;53.002;6.488;2023-09-12T09:54:24;42.03;;;29.75;;
54191;SDS011;40101;53.002;6.488;2023-09-12T09:56:54;45.13;;;30.70;;
54191;SDS011;40101;53.002;6.488;2023-09-12T09:59:22;42.60;;;29.15;;
54191;SDS011;40101;53.002;6.488;2023-09-12T10:01:49;39.40;;;27.33;;
54191;SDS011;40101;53.002;6.488;2023-09-12T10:04:18;34.65;;;24.70;;
54191;SDS011;40101;53.002;6.488;2023-09-12T10:06:46;44.72;;;29.40;;
54191;SDS011;40101;53.002;6.488;2023-09-12T10:09:12;44.08;;;28.63;;
54191;SDS011;40101;53.002;6.488;2023-09-12T10:11:39;44.67;;;27.23;;
54191;SDS011;40101;53.002;6.488;2023-09-12T10:14:06;37.28;;;27.55;;
54191;SDS011;40101;53.002;6.488;2023-09-12T10:19:04;28.67;;;21.05;;
54191;SDS011;40101;53.002;6.488;2023-09-12T10:21:41;27.85;;;21.83;;
54191;SDS011;40101;53.002;6.488;2023-09-12T10:24:23;32.33;;;21.80;;
54191;SDS011;40101;53.002;6.488;2023-09-12T10:26:50;28.60;;;21.85;;
54191;SDS011;40101;53.002;6.488;2023-09-12T10:29:17;30.67;;;22.05;;
54191;SDS011;40101;53.002;6.488;2023-09-12T10:31:42;30.83;;;21.52;;
54191;SDS011;40101;53.002;6.488;2023-09-12T10:34:10;31.00;;;19.42;;
54191;SDS011;40101;53.002;6.488;2023-09-12T10:36:41;32.10;;;22.10;;
54191;SDS011;40101;53.002;6.488;2023-09-12T10:39:08;27.73;;;20.17;;
54191;SDS011;40101;53.002;6.488;2023-09-12T10:41:39;28.42;;;20.60;;
54191;SDS011;40101;53.002;6.488;2023-09-12T10:44:09;30.15;;;21.45;;
54191;SDS011;40101;53.002;6.488;2023-09-12T10:46:40;27.20;;;19.30;;
54191;SDS011;40101;53.002;6.488;2023-09-12T10:49:09;24.60;;;18.50;;
54191;SDS011;40101;53.002;6.488;2023-09-12T10:51:43;27.50;;;19.17;;
54191;SDS011;40101;53.002;6.488;2023-09-12T10:54:14;29.27;;;19.75;;
54191;SDS011;40101;53.002;6.488;2023-09-12T10:56:41;27.45;;;20.02;;
54191;SDS011;40101;53.002;6.488;2023-09-12T11:01:40;23.90;;;14.88;;
54191;SDS011;40101;53.002;6.488;2023-09-12T11:06:52;18.02;;;13.88;;
54191;SDS011;40101;53.002;6.488;2023-09-12T11:09:21;19.52;;;12.70;;
54191;SDS011;40101;53.002;6.488;2023-09-12T11:11:49;22.17;;;15.77;;
54191;SDS011;40101;53.002;6.488;2023-09-12T11:14:19;23.13;;;14.98;;
54191;SDS011;40101;53.002;6.488;2023-09-12T11:19:45;27.45;;;16.83;;
54191;SDS011;40101;53.002;6.488;2023-09-12T11:22:21;24.38;;;17.60;;
54191;SDS011;40101;53.002;6.488;2023-09-12T11:24:51;24.65;;;17.67;;
54191;SDS011;40101;53.002;6.488;2023-09-12T11:27:18;24.40;;;17.27;;
54191;SDS011;40101;53.002;6.488;2023-09-12T11:29:44;24.88;;;17.25;;
54191;SDS011;40101;53.002;6.488;2023-09-12T11:32:11;27.80;;;17.15;;
54191;SDS011;40101;53.002;6.488;2023-09-12T11:34:55;24.10;;;16.80;;
54191;SDS011;40101;53.002;6.488;2023-09-12T11:37:27;29.02;;;19.00;;
54191;SDS011;40101;53.002;6.488;2023-09-12T11:39:54;21.48;;;13.85;;
54191;SDS011;40101;53.002;6.488;2023-09-12T11:42:22;20.20;;;13.38;;
54191;SDS011;40101;53.002;6.488;2023-09-12T11:44:50;16.15;;;13.10;;
54191;SDS011;40101;53.002;6.488;2023-09-12T11:47:16;20.52;;;14.45;;
54191;SDS011;40101;53.002;6.488;2023-09-12T11:49:42;18.05;;;11.45;;
54191;SDS011;40101;53.002;6.488;2023-09-12T11:52:15;19.83;;;12.35;;
54191;SDS011;40101;53.002;6.488;2023-09-12T11:54:44;17.30;;;12.65;;
54191;SDS011;40101;53.002;6.488;2023-09-12T11:57:12;19.83;;;13.85;;
54191;SDS011;40101;53.002;6.488;2023-09-12T11:59:42;19.25;;;12.55;;
54191;SDS011;40101;53.002;6.488;2023-09-12T12:04:39;20.13;;;12.52;;
54191;SDS011;40101;53.002;6.488;2023-09-12T12:07:05;14.27;;;9.98;;
54191;SDS011;40101;53.002;6.488;2023-09-12T12:09:32;16.95;;;12.30;;
54191;SDS011;40101;53.002;6.488;2023-09-12T12:12:31;14.15;;;10.90;;
54191;SDS011;40101;53.002;6.488;2023-09-12T12:14:50;15.68;;;11.82;;
54191;SDS011;40101;53.002;6.488;2023-09-12T12:17:16;16.08;;;11.65;;
54191;SDS011;40101;53.002;6.488;2023-09-12T12:19:44;15.88;;;9.32;;
54191;SDS011;40101;53.002;6.488;2023-09-12T12:22:11;16.27;;;9.45;;
54191;SDS011;40101;53.002;6.488;2023-09-12T12:24:37;12.07;;;8.95;;
54191;SDS011;40101;53.002;6.488;2023-09-12T12:27:06;10.30;;;8.32;;
54191;SDS011;40101;53.002;6.488;2023-09-12T12:29:34;11.52;;;8.48;;
54191;SDS011;40101;53.002;6.488;2023-09-12T12:32:00;12.52;;;9.38;;
54191;SDS011;40101;53.002;6.488;2023-09-12T12:34:27;18.85;;;10.70;;
54191;SDS011;40101;53.002;6.488;2023-09-12T12:36:53;15.20;;;10.50;;
54191;SDS011;40101;53.002;6.488;2023-09-12T12:39:20;13.27;;;10.18;;
54191;SDS011;40101;53.002;6.488;2023-09-12T12:41:47;12.60;;;8.32;;
54191;SDS011;40101;53.002;6.488;2023-09-12T12:44:13;13.20;;;9.52;;
54191;SDS011;40101;53.002;6.488;2023-09-12T12:46:51;13.75;;;9.77;;
54191;SDS011;40101;53.002;6.488;2023-09-12T12:49:18;12.30;;;9.27;;
54191;SDS011;40101;53.002;6.488;2023-09-12T12:51:45;14.82;;;10.13;;
54191;SDS011;40101;53.002;6.488;2023-09-12T12:54:11;11.80;;;8.60;;
54191;SDS011;40101;53.002;6.488;2023-09-12T12:56:37;11.32;;;9.18;;
54191;SDS011;40101;53.002;6.488;2023-09-12T12:59:04;16.48;;;11.02;;
54191;SDS011;40101;53.002;6.488;2023-09-12T13:01:34;14.27;;;9.82;;
54191;SDS011;40101;53.002;6.488;2023-09-12T13:04:00;15.50;;;11.98;;
54191;SDS011;40101;53.002;6.488;2023-09-12T13:06:26;11.05;;;8.43;;
54191;SDS011;40101;53.002;6.488;2023-09-12T13:08:55;13.73;;;10.05;;
54191;SDS011;40101;53.002;6.488;2023-09-12T13:11:22;6.70;;;5.85;;
54191;SDS011;40101;53.002;6.488;2023-09-12T13:13:48;14.07;;;9.23;;
54191;SDS011;40101;53.002;6.488;2023-09-12T13:16:15;12.93;;;7.50;;
54191;SDS011;40101;53.002;6.488;2023-09-12T13:18:41;11.20;;;7.22;;
54191;SDS011;40101;53.002;6.488;2023-09-12T13:21:07;12.00;;;8.35;;
54191;SDS011;40101;53.002;6.488;2023-09-12T13:23:37;12.05;;;8.27;;
54191;SDS011;40101;53.002;6.488;2023-09-12T13:26:03;8.65;;;6.57;;
54191;SDS011;40101;53.002;6.488;2023-09-12T13:28:29;7.82;;;6.10;;
54191;SDS011;40101;53.002;6.488;2023-09-12T13:30:55;8.48;;;5.68;;
54191;SDS011;40101;53.002;6.488;2023-09-12T13:33:22;6.15;;;5.18;;
54191;SDS011;40101;53.002;6.488;2023-09-12T13:35:48;6.60;;;5.75;;
54191;SDS011;40101;53.002;6.488;2023-09-12T13:38:14;10.77;;;5.07;;
54191;SDS011;40101;53.002;6.488;2023-09-12T13:40:42;8.43;;;5.35;;
54191;SDS011;40101;53.002;6.488;2023-09-12T13:43:08;7.35;;;5.43;;
54191;SDS011;40101;53.002;6.488;2023-09-12T13:45:34;8.88;;;6.05;;
54191;SDS011;40101;53.002;6.488;2023-09-12T13:48:01;7.45;;;5.25;;
54191;SDS011;40101;53.002;6.488;2023-09-12T13:50:28;8.15;;;5.45;;
54191;SDS011;40101;53.002;6.488;2023-09-12T13:52:55;7.07;;;5.07;;
54191;SDS011;40101;53.002;6.488;2023-09-12T13:55:25;6.93;;;5.22;;
54191;SDS011;40101;53.002;6.488;2023-09-12T13:57:50;8.15;;;4.82;;
54191;SDS011;40101;53.002;6.488;2023-09-12T14:00:16;7.30;;;4.32;;
54191;SDS011;40101;53.002;6.488;2023-09-12T14:02:42;6.22;;;4.32;;
54191;SDS011;40101;53.002;6.488;2023-09-12T14:05:09;10.32;;;4.22;;
54191;SDS011;40101;53.002;6.488;2023-09-12T14:07:36;7.47;;;3.60;;
54191;SDS011;40101;53.002;6.488;2023-09-12T14:10:03;5.53;;;3.33;;
54191;SDS011;40101;53.002;6.488;2023-09-12T14:12:29;7.15;;;3.72;;
54191;SDS011;40101;53.002;6.488;2023-09-12T14:14:54;7.88;;;3.70;;
54191;SDS011;40101;53.002;6.488;2023-09-12T14:17:20;4.18;;;3.35;;
54191;SDS011;40101;53.002;6.488;2023-09-12T14:19:45;7.05;;;3.72;;
54191;SDS011;40101;53.002;6.488;2023-09-12T14:22:11;5.22;;;3.67;;
54191;SDS011;40101;53.002;6.488;2023-09-12T14:24:37;6.90;;;3.33;;
54191;SDS011;40101;53.002;6.488;2023-09-12T14:27:02;7.95;;;3.67;;
54191;SDS011;40101;53.002;6.488;2023-09-12T14:29:29;6.82;;;3.20;;
54191;SDS011;40101;53.002;6.488;2023-09-12T14:31:55;5.18;;;3.92;;
54191;SDS011;40101;53.002;6.488;2023-09-12T14:34:24;8.90;;;4.78;;
54191;SDS011;40101;53.002;6.488;2023-09-12T14:36:54;7.30;;;4.75;;
54191;SDS011;40101;53.002;6.488;2023-09-12T14:39:24;7.82;;;4.70;;